Time;durP1;ratioP1;P1;durP2;ratioP2;P2;SDS_P1;SDS_P2;PMS_P1;PMS_P2;Temp;Humidity;BMP_temperature;BMP_pressure;BME280_temperature;BME280_humidity;BME280_pressure;Samples;Min_cycle;Max_cycle;Signal;HPM_P1;HPM_P2
2022/12/28 00:01:05;;;;;;;7.95;5.57;;;;;;;8.92;66.79;95653.22;4175892;28;20453;-74
2022/12/28 00:03:06;;;;;;;6.93;5.18;;;;;;;8.94;67.30;95646.91;4174520;28;20154;-75
2022/12/28 00:05:08;;;;;;;6.90;5.20;;;;;;;8.92;66.41;95633.16;4159752;28;20061;-74
2022/12/28 00:07:10;;;;;;;7.43;5.50;;;;;;;8.91;66.98;95647.19;4159798;28;20069;-72
2022/12/28 00:09:12;;;;;;;7.80;6.15;;;;;;;8.86;67.10;95645.88;4159561;28;20533;-74
2022/12/28 00:11:16;;;;;;;7.93;5.60;;;;;;;8.85;66.66;95647.69;4160883;28;20079;-74
2022/12/28 00:13:31;;;;;;;7.28;5.38;;;;;;;8.88;66.57;95642.19;4175743;28;20060;-74
2022/12/28 00:15:35;;;;;;;6.93;5.85;;;;;;;8.85;66.81;95642.44;4175200;28;20461;-76
2022/12/28 00:17:37;;;;;;;7.13;5.55;;;;;;;8.80;66.67;95639.41;4173197;28;20053;-74
2022/12/28 00:19:39;;;;;;;8.70;5.93;;;;;;;8.79;67.34;95648.16;4175271;28;20080;-73
2022/12/28 00:21:41;;;;;;;7.65;5.68;;;;;;;8.74;66.67;95648.56;4168495;28;20053;-73
2022/12/28 00:23:43;;;;;;;8.43;6.10;;;;;;;8.73;67.09;95652.13;4158815;28;20063;-73
2022/12/28 00:25:45;;;;;;;8.10;6.43;;;;;;;8.72;67.27;95660.09;4159440;28;20235;-74
2022/12/28 00:27:46;;;;;;;6.45;5.50;;;;;;;8.73;67.24;95656.50;4175313;28;20309;-74
2022/12/28 00:29:48;;;;;;;9.27;6.40;;;;;;;8.76;67.01;95661.50;4174312;28;20048;-77
2022/12/28 00:31:50;;;;;;;8.43;6.13;;;;;;;8.78;67.01;95665.63;4172234;28;20061;-73
2022/12/28 00:33:52;;;;;;;9.35;6.53;;;;;;;8.82;66.99;95663.63;4174548;28;20084;-74
2022/12/28 00:35:55;;;;;;;9.27;6.57;;;;;;;8.83;66.63;95662.66;4157715;28;20060;-75
2022/12/28 00:37:57;;;;;;;9.95;6.15;;;;;;;8.83;66.49;95665.25;4166059;28;20145;-74
2022/12/28 00:39:58;;;;;;;10.20;7.07;;;;;;;8.85;66.66;95673.81;4171083;28;20045;-73
2022/12/28 00:42:00;;;;;;;7.85;6.20;;;;;;;8.81;66.81;95672.41;4159835;28;20057;-73
2022/12/28 00:44:02;;;;;;;10.00;6.80;;;;;;;8.79;66.31;95679.53;4170946;28;20057;-72
2022/12/28 00:46:04;;;;;;;9.27;6.53;;;;;;;8.77;66.78;95691.88;4170042;28;20554;-73
2022/12/28 00:48:06;;;;;;;8.25;6.43;;;;;;;8.78;67.40;95681.31;4163096;28;20374;-72
2022/12/28 00:50:08;;;;;;;9.98;7.00;;;;;;;8.76;66.42;95683.22;4167843;28;20057;-74
2022/12/28 00:52:10;;;;;;;9.95;6.40;;;;;;;8.79;67.07;95679.53;4175020;28;20200;-75
2022/12/28 00:54:11;;;;;;;9.27;6.93;;;;;;;8.79;66.79;95679.53;4170630;28;20591;-73
2022/12/28 00:56:18;;;;;;;9.20;6.20;;;;;;;8.81;67.08;95683.66;4164610;28;20135;-76
2022/12/28 00:58:19;;;;;;;9.60;7.38;;;;;;;8.81;67.53;95685.47;4167710;28;20471;-73
2022/12/28 01:00:21;;;;;;;10.23;7.32;;;;;;;8.87;67.05;95689.38;4173041;28;20053;-73
2022/12/28 01:02:23;;;;;;;11.27;7.93;;;;;;;8.86;67.05;95690.31;4164016;28;20061;-74
2022/12/28 01:04:25;;;;;;;10.45;7.38;;;;;;;8.85;67.56;95686.88;4166508;28;20411;-74
2022/12/28 01:06:27;;;;;;;12.13;7.47;;;;;;;8.88;67.13;95691.00;4172548;28;20469;-75
2022/12/28 01:08:29;;;;;;;9.02;7.47;;;;;;;8.78;67.91;95683.09;4165377;28;20170;-73
2022/12/28 01:10:31;;;;;;;11.98;8.45;;;;;;;8.75;67.53;95688.56;4164754;28;20071;-72
2022/12/28 01:12:32;;;;;;;10.32;7.95;;;;;;;8.70;68.07;95683.72;4170195;28;20084;-74
2022/12/28 01:14:38;;;;;;;13.00;9.05;;;;;;;8.73;68.35;95682.63;4174523;28;20114;-73
2022/12/28 01:16:40;;;;;;;10.85;8.45;;;;;;;8.75;67.83;95688.56;4174011;28;20053;-72
2022/12/28 01:18:43;;;;;;;11.32;8.38;;;;;;;8.73;68.38;95682.63;4170362;28;20247;-73
2022/12/28 01:20:45;;;;;;;12.97;8.90;;;;;;;8.75;68.62;95671.09;4156839;28;20050;-72
2022/12/28 01:22:47;;;;;;;12.65;9.07;;;;;;;8.72;68.28;95680.97;4174427;28;20053;-73
2022/12/28 01:24:48;;;;;;;13.18;9.20;;;;;;;8.70;68.26;95680.28;4174645;28;20441;-74
2022/12/28 01:26:50;;;;;;;12.30;8.75;;;;;;;8.61;68.37;95687.88;4174306;28;20054;-75
2022/12/28 01:28:52;;;;;;;11.50;8.40;;;;;;;8.65;68.34;95682.41;4174650;28;20522;-74
2022/12/28 01:30:53;;;;;;;12.57;9.15;;;;;;;8.65;68.43;95685.03;4173497;28;20063;-74
2022/12/28 01:32:58;;;;;;;14.05;9.02;;;;;;;8.66;67.76;95676.25;4162991;28;20315;-76
2022/12/28 01:35:00;;;;;;;13.82;9.88;;;;;;;8.61;68.49;95687.88;4171784;28;20199;-75
2022/12/28 01:37:01;;;;;;;13.75;10.35;;;;;;;8.56;68.63;95673.53;4161428;28;20052;-75
2022/12/28 01:39:05;;;;;;;13.80;10.20;;;;;;;8.60;68.14;95675.78;4173749;28;20106;-73
2022/12/28 01:41:08;;;;;;;15.02;10.80;;;;;;;8.61;68.31;95680.06;4174704;28;20461;-73
2022/12/28 01:43:14;;;;;;;14.63;10.38;;;;;;;8.60;68.47;95675.78;4171833;28;20488;-76
2022/12/28 01:45:30;;;;;;;14.57;10.85;;;;;;;8.59;68.58;95678.53;4176825;28;20064;-75
2022/12/28 01:47:33;;;;;;;14.00;10.77;;;;;;;8.58;68.38;95676.84;4180002;28;20168;-73
2022/12/28 01:49:39;;;;;;;15.23;11.35;;;;;;;8.60;68.40;95674.94;4178764;28;20069;-74
2022/12/28 01:52:01;;;;;;;16.08;10.73;;;;;;;8.58;68.15;95677.69;4166222;28;20049;-75
2022/12/28 01:54:03;;;;;;;14.25;10.45;;;;;;;8.44;68.64;95684.97;4161615;28;20061;-74
2022/12/28 01:56:05;;;;;;;15.13;11.40;;;;;;;8.47;68.51;95679.50;4174437;28;20111;-75
2022/12/28 01:58:13;;;;;;;14.68;11.00;;;;;;;8.48;67.89;95675.94;4168303;28;20056;-74
2022/12/28 02:00:16;;;;;;;13.95;10.50;;;;;;;8.46;68.40;95675.25;4177927;28;20123;-75
2022/12/28 02:02:18;;;;;;;14.30;10.07;;;;;;;8.43;67.43;95668.44;4176374;28;20084;-73
2022/12/28 02:04:20;;;;;;;14.73;10.40;;;;;;;8.36;67.83;95668.09;4173601;28;20140;-74
2022/12/28 02:06:22;;;;;;;14.43;10.35;;;;;;;8.35;67.70;95669.03;4162160;28;20061;-75
2022/12/28 02:08:55;;;;;;;16.63;11.27;;;;;;;8.30;68.30;95663.38;4173189;28;20102;-77
2022/12/28 02:10:57;;;;;;;15.50;11.45;;;;;;;8.24;67.86;95663.00;4177817;28;20480;-75
2022/12/28 02:12:59;;;;;;;15.38;11.15;;;;;;;8.19;67.96;95663.38;4150410;28;20245;-74
2022/12/28 02:15:01;;;;;;;18.45;12.05;;;;;;;8.13;67.33;95658.63;4161860;28;20459;-75
2022/12/28 02:17:03;;;;;;;16.45;11.25;;;;;;;8.10;67.76;95662.31;4165377;28;20063;-74
2022/12/28 02:19:05;;;;;;;16.38;12.55;;;;;;;8.02;67.59;95656.84;4150572;28;20100;-76
2022/12/28 02:21:18;;;;;;;15.32;11.32;;;;;;;8.03;67.40;95663.75;4153775;28;20096;-76
2022/12/28 02:23:33;;;;;;;16.30;11.70;;;;;;;7.98;67.36;95645.03;4158309;28;20061;-76
2022/12/28 02:26:12;;;;;;;15.35;11.77;;;;;;;7.92;67.86;95646.31;4159047;28;20089;-75
2022/12/28 02:28:37;;;;;;;16.17;11.65;;;;;;;7.92;67.55;95635.06;4173713;28;20104;-74
2022/12/28 02:31:06;;;;;;;16.25;11.75;;;;;;;7.97;67.21;95649.38;4152529;28;20069;-77
2022/12/28 02:33:16;;;;;;;18.75;11.75;;;;;;;8.00;66.63;95643.94;4164558;28;20057;-75
2022/12/28 02:35:18;;;;;;;18.58;11.95;;;;;;;8.04;66.59;95636.69;4143591;28;20062;-75
2022/12/28 02:37:43;;;;;;;16.25;11.43;;;;;;;8.02;66.95;95625.53;4170229;28;20071;-75
2022/12/28 02:39:51;;;;;;;14.93;10.88;;;;;;;7.98;66.05;95638.03;4174967;28;20048;-77
2022/12/28 02:41:53;;;;;;;15.38;10.93;;;;;;;7.93;66.49;95634.09;4170592;28;20048;-76
2022/12/28 02:43:57;;;;;;;18.77;11.95;;;;;;;7.89;66.16;95643.09;4164870;28;20065;-74
2022/12/28 02:51:28;;;;;;;13.88;10.90;;;;;;;7.82;65.85;95631.50;4161127;28;20046;-74
2022/12/28 02:53:58;;;;;;;16.70;11.27;;;;;;;7.80;65.62;95629.81;4175271;28;20061;-74
2022/12/28 02:56:08;;;;;;;13.57;9.65;;;;;;;7.77;65.62;95630.06;4171456;28;20057;-75
2022/12/28 02:58:32;;;;;;;13.65;9.45;;;;;;;7.85;64.44;95615.59;4150586;28;20137;-75
2022/12/28 03:01:02;;;;;;;14.70;9.73;;;;;;;7.96;63.95;95616.44;4174729;28;20061;-75
2022/12/28 03:03:20;;;;;;;13.80;9.52;;;;;;;8.07;63.71;95617.38;4158961;28;20171;-76
2022/12/28 03:08:30;;;;;;;14.35;9.48;;;;;;;7.89;63.57;95617.03;4176320;28;20049;-75
2022/12/28 03:10:34;;;;;;;14.75;9.68;;;;;;;7.73;64.34;95615.59;4176359;28;20061;-74
2022/12/28 03:12:48;;;;;;;13.85;10.00;;;;;;;7.80;63.93;95613.34;4176802;28;20079;-74
2022/12/28 03:14:58;;;;;;;;;;;;;;;7.87;64.24;95617.16;4163223;28;20061;-74
2022/12/28 03:31:13;;;;;;;12.63;8.40;;;;;;;7.20;64.89;95630.13;4168668;28;20053;-76
2022/12/28 03:33:15;;;;;;;17.25;9.38;;;;;;;7.26;65.25;95635.72;4153922;28;20119;-75
2022/12/28 03:35:19;;;;;;;12.30;8.70;;;;;;;7.07;65.77;95636.25;4163887;28;20061;-75
2022/12/28 03:37:28;;;;;;;13.85;9.27;;;;;;;6.83;66.43;95633.72;4160611;28;20057;-75
2022/12/28 03:39:50;;;;;;;12.35;7.93;;;;;;;6.81;66.16;95646.00;4155240;28;20053;-75
2022/12/28 03:44:24;;;;;;;14.07;9.40;;;;;;;6.68;66.42;95637.44;4173603;28;20376;-76
2022/12/28 03:46:48;;;;;;;14.63;8.88;;;;;;;6.76;66.41;95638.53;4161395;28;20396;-77
2022/12/28 03:48:50;;;;;;;13.95;8.70;;;;;;;6.79;66.50;95632.28;4142255;28;20061;-74
2022/12/28 03:50:52;;;;;;;12.98;8.70;;;;;;;6.80;65.81;95633.94;4172648;28;20045;-74
2022/12/28 03:52:57;;;;;;;12.73;8.77;;;;;;;6.67;66.40;95638.41;4152292;28;20423;-74
2022/12/28 03:54:59;;;;;;;15.85;8.88;;;;;;;6.81;66.17;95619.97;4175687;28;20072;-75
2022/12/28 03:57:01;;;;;;;11.70;8.07;;;;;;;7.00;65.62;95626.44;4145706;28;20065;-74
2022/12/28 03:59:03;;;;;;;12.30;8.48;;;;;;;7.10;64.75;95617.00;4162441;28;20060;-73
2022/12/28 04:01:05;;;;;;;12.23;8.32;;;;;;;7.24;64.73;95610.72;4160484;28;20091;-73
2022/12/28 04:03:07;;;;;;;13.50;7.82;;;;;;;7.32;62.91;95611.81;4148498;28;20057;-72
2022/12/28 04:05:09;;;;;;;11.68;7.25;;;;;;;7.39;63.28;95609.56;4149605;28;20097;-73
2022/12/28 04:07:11;;;;;;;11.55;8.38;;;;;;;7.49;62.43;95620.13;4163694;28;20065;-72
2022/12/28 04:09:12;;;;;;;12.05;7.72;;;;;;;7.54;62.70;95617.97;4161811;28;20106;-73
2022/12/28 04:11:14;;;;;;;10.68;6.90;;;;;;;7.59;62.28;95611.47;4162665;28;20416;-73
2022/12/28 04:13:16;;;;;;;10.75;7.22;;;;;;;7.65;62.06;95615.38;4162914;28;20461;-71
2022/12/28 04:15:18;;;;;;;10.75;7.30;;;;;;;7.75;61.54;95615.50;4165655;28;20378;-73
2022/12/28 04:17:19;;;;;;;12.63;7.35;;;;;;;7.76;61.66;95617.97;4174440;28;20053;-72
2022/12/28 04:19:21;;;;;;;10.05;6.97;;;;;;;7.81;61.74;95612.41;4170333;28;20053;-72
2022/12/28 04:21:23;;;;;;;10.60;6.90;;;;;;;7.83;61.33;95622.72;4171427;28;20100;-73
2022/12/28 04:23:25;;;;;;;9.55;6.68;;;;;;;7.83;61.12;95628.78;4161532;28;20053;-70
2022/12/28 04:25:26;;;;;;;11.00;6.80;;;;;;;7.71;61.37;95629.72;4168133;28;20143;-74
2022/12/28 04:27:28;;;;;;;7.93;6.10;;;;;;;7.67;61.30;95639.56;4159319;28;20061;-72
2022/12/28 04:29:30;;;;;;;9.48;6.60;;;;;;;7.63;61.46;95645.94;4171914;28;20083;-72
2022/12/28 04:31:32;;;;;;;11.45;6.82;;;;;;;7.63;61.00;95653.78;4171118;28;20103;-73
2022/12/28 04:33:35;;;;;;;10.20;6.78;;;;;;;7.59;61.57;95647.13;4163711;28;20074;-71
2022/12/28 04:35:37;;;;;;;10.35;6.70;;;;;;;7.64;61.40;95652.03;4164276;28;20476;-73
2022/12/28 04:37:38;;;;;;;8.80;6.18;;;;;;;7.58;61.15;95648.09;4172696;28;20053;-71
2022/12/28 04:39:40;;;;;;;8.50;5.75;;;;;;;7.58;60.73;95637.66;4170799;28;20132;-73
2022/12/28 04:41:57;;;;;;;8.63;5.95;;;;;;;7.64;60.41;95644.19;4144612;28;20054;-70
2022/12/28 04:43:59;;;;;;;8.82;5.88;;;;;;;7.63;60.65;95659.00;4174601;28;20057;-71
2022/12/28 04:46:03;;;;;;;9.60;6.30;;;;;;;7.75;59.84;95662.44;4165809;28;20063;-72
2022/12/28 04:48:05;;;;;;;7.75;5.45;;;;;;;7.74;59.89;95661.63;4167614;28;20053;-72
2022/12/28 04:50:07;;;;;;;10.13;5.63;;;;;;;7.77;59.54;95660.56;4165057;28;20447;-73
2022/12/28 04:52:09;;;;;;;8.05;5.55;;;;;;;7.80;59.59;95650.69;4165643;28;20068;-75
2022/12/28 04:54:12;;;;;;;7.03;5.60;;;;;;;7.83;59.39;95665.31;4174057;28;20102;-73
2022/12/28 04:56:15;;;;;;;9.27;5.93;;;;;;;7.86;59.20;95667.66;4175366;28;20071;-74
2022/12/28 04:58:17;;;;;;;11.23;5.75;;;;;;;7.87;59.68;95666.72;4160611;28;20053;-76
2022/12/28 05:00:19;;;;;;;8.48;5.32;;;;;;;7.82;59.29;95665.41;4164130;28;20400;-74
2022/12/28 05:02:21;;;;;;;8.93;5.65;;;;;;;7.77;58.81;95655.34;4156675;28;20756;-76
2022/12/28 05:04:23;;;;;;;7.30;5.35;;;;;;;7.78;59.19;95655.19;4156985;28;20137;-76
2022/12/28 05:06:26;;;;;;;12.25;6.32;;;;;;;7.55;59.67;95651.78;4175041;28;20425;-73
2022/12/28 05:08:30;;;;;;;9.83;5.93;;;;;;;7.51;60.39;95644.31;4174768;28;20061;-76
2022/12/28 05:10:32;;;;;;;10.15;6.32;;;;;;;7.64;60.44;95644.19;4174332;28;20056;-74
2022/12/28 05:12:34;;;;;;;8.55;5.93;;;;;;;7.77;59.92;95645.72;4174973;28;20084;-76
2022/12/28 05:14:36;;;;;;;11.07;6.55;;;;;;;7.90;59.43;95647.41;4162516;28;20052;-73
2022/12/28 05:16:37;;;;;;;10.23;7.22;;;;;;;7.79;59.98;95654.25;4174850;28;20507;-77
2022/12/28 05:18:40;;;;;;;10.63;5.90;;;;;;;7.82;60.06;95647.16;4174837;28;20136;-73
2022/12/28 05:20:41;;;;;;;9.32;5.93;;;;;;;7.89;59.28;95649.16;4160549;28;20544;-73
2022/12/28 05:22:43;;;;;;;10.13;6.20;;;;;;;7.50;60.28;95653.06;4178109;28;20443;-73
2022/12/28 05:24:45;;;;;;;10.95;6.97;;;;;;;7.19;61.74;95650.16;4177637;28;20601;-75
2022/12/28 05:26:47;;;;;;;10.00;6.72;;;;;;;7.26;61.33;95653.97;4160263;28;20153;-75
2022/12/28 05:28:48;;;;;;;12.13;6.57;;;;;;;7.18;61.33;95651.09;4178543;28;20098;-75
2022/12/28 05:30:51;;;;;;;8.73;5.80;;;;;;;7.19;60.40;95642.34;4178100;28;20064;-75
2022/12/28 05:32:52;;;;;;;10.32;5.88;;;;;;;7.17;60.98;95660.69;4176670;28;20064;-76
2022/12/28 05:34:54;;;;;;;9.55;5.68;;;;;;;7.20;60.67;95667.44;4176452;28;20138;-74
2022/12/28 05:36:56;;;;;;;8.32;5.90;;;;;;;7.02;60.40;95659.25;4168626;28;20136;-74
2022/12/28 05:38:57;;;;;;;11.45;5.57;;;;;;;6.94;61.05;95670.22;4155826;28;20124;-75
2022/12/28 05:41:12;;;;;;;9.68;6.80;;;;;;;6.60;60.53;95676.22;4175649;28;20474;-72
2022/12/28 05:43:13;;;;;;;10.52;6.55;;;;;;;6.54;60.23;95680.13;4160611;28;20065;-74
2022/12/28 05:45:15;;;;;;;7.90;5.28;;;;;;;6.24;60.90;95686.56;4176977;28;20064;-75
2022/12/28 05:47:17;;;;;;;14.18;6.55;;;;;;;6.33;61.10;95674.66;4172831;28;20270;-74
2022/12/28 05:49:18;;;;;;;10.25;6.70;;;;;;;6.19;60.98;95680.00;4173228;28;20045;-73
2022/12/28 05:51:21;;;;;;;10.25;6.53;;;;;;;6.18;61.50;95678.34;4177424;28;20119;-74
2022/12/28 05:53:23;;;;;;;12.60;7.90;;;;;;;6.33;61.30;95690.28;4176175;28;20087;-73
2022/12/28 05:55:25;;;;;;;13.32;7.53;;;;;;;6.22;60.79;95685.84;4174940;28;20419;-73
2022/12/28 05:57:27;;;;;;;9.88;6.30;;;;;;;6.32;60.94;95686.84;4174282;28;20053;-75
2022/12/28 05:59:28;;;;;;;8.50;6.03;;;;;;;6.49;61.15;95690.81;4160196;28;20578;-76
2022/12/28 06:01:36;;;;;;;8.18;5.25;;;;;;;6.62;60.41;95677.75;4170983;28;20045;-73
2022/12/28 06:03:38;;;;;;;8.48;5.82;;;;;;;6.82;59.97;95681.53;4157745;28;20077;-73
2022/12/28 06:05:40;;;;;;;8.65;5.20;;;;;;;6.92;59.74;95685.13;4174999;28;20063;-75
2022/12/28 06:07:41;;;;;;;6.72;4.88;;;;;;;7.02;59.24;95684.47;4173373;28;20507;-75
2022/12/28 06:09:43;;;;;;;7.30;5.00;;;;;;;7.13;59.29;95698.34;4174316;28;20358;-74
2022/12/28 06:11:45;;;;;;;7.28;5.05;;;;;;;7.26;58.89;95687.03;4172623;28;20128;-73
2022/12/28 06:13:47;;;;;;;8.60;5.38;;;;;;;7.32;58.46;95695.22;4177794;28;20060;-73
2022/12/28 06:15:49;;;;;;;8.20;5.57;;;;;;;7.37;58.59;95698.28;4173367;28;20056;-74
2022/12/28 06:17:52;;;;;;;9.77;5.90;;;;;;;7.43;58.10;95698.81;4170118;28;20394;-76
2022/12/28 06:19:54;;;;;;;9.13;5.53;;;;;;;7.43;58.28;95698.81;4164696;28;20064;-74
2022/12/28 06:21:55;;;;;;;9.05;5.18;;;;;;;7.45;58.15;95697.72;4174396;28;20649;-76
2022/12/28 06:23:58;;;;;;;9.60;6.03;;;;;;;7.45;58.15;95697.72;4177235;28;20093;-76
2022/12/28 06:26:02;;;;;;;7.85;5.95;;;;;;;7.47;58.19;95690.63;4167350;28;20061;-73
2022/12/28 06:28:04;;;;;;;10.82;5.90;;;;;;;7.48;58.10;95686.22;4158382;28;20057;-75
2022/12/28 06:30:06;;;;;;;10.27;5.82;;;;;;;7.56;58.12;95692.53;4169398;28;20065;-73
2022/12/28 06:32:08;;;;;;;9.00;6.10;;;;;;;7.60;58.11;95687.91;4168927;28;20058;-76
2022/12/28 06:34:10;;;;;;;9.60;6.07;;;;;;;7.66;58.24;95684.84;4166670;28;20727;-78
2022/12/28 06:36:13;;;;;;;8.55;5.63;;;;;;;7.71;57.64;95693.16;4175104;28;20118;-75
2022/12/28 06:38:21;;;;;;;9.38;6.00;;;;;;;7.74;56.93;95702.50;4165900;28;20093;-74
2022/12/28 06:40:23;;;;;;;10.30;6.13;;;;;;;7.72;57.43;95700.03;4174088;28;20069;-75
2022/12/28 06:42:44;;;;;;;9.27;6.32;;;;;;;7.79;57.91;95706.44;4167191;28;20052;-74
2022/12/28 06:44:46;;;;;;;10.93;6.32;;;;;;;7.77;57.41;95718.75;4177290;28;20057;-74
2022/12/28 06:46:48;;;;;;;12.15;6.55;;;;;;;7.73;57.49;95712.13;4175483;28;20057;-76
2022/12/28 06:48:50;;;;;;;9.85;6.53;;;;;;;7.79;57.83;95705.63;4164612;28;20131;-73
2022/12/28 06:50:55;;;;;;;10.80;6.55;;;;;;;7.83;57.52;95704.44;4142958;28;20132;-75
2022/12/28 06:52:57;;;;;;;10.63;6.15;;;;;;;7.83;57.14;95709.66;4175319;28;20057;-75
2022/12/28 06:54:59;;;;;;;9.85;6.13;;;;;;;7.83;57.01;95707.03;4164362;28;20068;-76
2022/12/28 06:57:01;;;;;;;9.20;6.35;;;;;;;7.71;57.40;95707.97;4179621;28;20110;-76
2022/12/28 06:59:03;;;;;;;8.98;5.85;;;;;;;7.71;57.75;95708.78;4169579;28;20412;-76
2022/12/28 07:01:16;;;;;;;10.73;6.43;;;;;;;7.74;57.65;95715.53;4161407;28;20084;-73
2022/12/28 07:03:18;;;;;;;12.48;7.18;;;;;;;7.77;57.10;95697.06;4161342;28;20085;-75
2022/12/28 07:05:20;;;;;;;10.85;6.38;;;;;;;7.88;56.77;95699.69;4145004;28;20274;-75
2022/12/28 07:07:21;;;;;;;9.88;5.70;;;;;;;7.94;56.80;95693.19;4170297;28;20066;-77
2022/12/28 07:09:23;;;;;;;11.70;6.05;;;;;;;7.99;56.85;95701.47;4175916;28;20049;-76
2022/12/28 07:11:25;;;;;;;11.23;6.20;;;;;;;8.04;56.26;95699.31;4163611;28;20472;-77
2022/12/28 07:13:27;;;;;;;12.23;6.80;;;;;;;8.04;56.48;95707.16;4163318;28;20139;-76
2022/12/28 07:15:29;;;;;;;10.95;6.65;;;;;;;8.04;56.56;95709.75;4176386;28;20380;-74
2022/12/28 07:17:30;;;;;;;8.18;5.68;;;;;;;8.10;55.97;95706.69;4176102;28;20060;-74
2022/12/28 07:19:32;;;;;;;10.07;6.68;;;;;;;8.15;56.04;95709.78;4182378;28;20109;-75
2022/12/28 07:21:36;;;;;;;11.55;7.00;;;;;;;8.13;55.72;95705.59;4178031;28;20056;-76
2022/12/28 07:23:38;;;;;;;;;;;;;;;8.21;56.20;95700.63;4176554;28;20268;-76
2022/12/28 07:25:39;;;;;;;12.68;6.90;;;;;;;8.23;56.28;95697.91;4176118;28;19920;-75
2022/12/28 07:27:41;;;;;;;13.00;6.80;;;;;;;8.16;56.49;95694.94;4176288;28;20057;-74
2022/12/28 07:29:43;;;;;;;12.10;6.95;;;;;;;8.18;56.41;95701.69;4176052;28;20395;-75
2022/12/28 07:31:45;;;;;;;15.10;7.70;;;;;;;7.73;56.99;95706.06;4176202;28;20103;-73
2022/12/28 07:33:47;;;;;;;11.27;6.55;;;;;;;7.31;57.73;95711.81;4167672;28;20123;-76
2022/12/28 07:35:49;;;;;;;16.80;9.18;;;;;;;6.84;59.38;95720.47;4173225;28;20488;-76
2022/12/28 07:37:53;;;;;;;13.60;8.50;;;;;;;6.70;59.96;95726.69;4165826;28;20045;-75
2022/12/28 07:39:54;;;;;;;12.93;7.75;;;;;;;6.75;60.42;95721.97;4169548;28;20103;-75
2022/12/28 07:41:56;;;;;;;10.48;6.80;;;;;;;6.64;59.80;95727.13;4148702;28;20085;-76
2022/12/28 07:43:59;;;;;;;12.57;7.78;;;;;;;6.66;60.58;95727.84;4171887;28;20099;-75
2022/12/28 07:46:04;;;;;;;15.27;8.85;;;;;;;6.70;60.31;95731.91;4174644;28;20484;-73
2022/12/28 07:48:06;;;;;;;14.82;10.45;;;;;;;6.68;60.49;95726.81;4175870;28;20084;-77
2022/12/28 07:50:08;;;;;;;16.38;10.55;;;;;;;6.49;61.45;95735.09;4176081;28;20407;-74
2022/12/28 07:52:10;;;;;;;43.13;24.23;;;;;;;6.57;61.15;95732.78;4173885;28;20069;-74
2022/12/28 07:54:11;;;;;;;28.60;19.83;;;;;;;6.60;60.74;95731.72;4166900;28;20135;-74
2022/12/28 07:56:14;;;;;;;26.45;17.60;;;;;;;6.74;60.88;95728.97;4176431;28;20049;-75
2022/12/28 07:58:15;;;;;;;27.35;16.10;;;;;;;6.91;60.65;95725.16;4166571;28;20510;-75
2022/12/28 08:00:17;;;;;;;28.00;16.33;;;;;;;7.12;60.24;95724.50;4165059;28;20057;-76
2022/12/28 08:02:19;;;;;;;24.73;14.93;;;;;;;7.31;59.56;95729.19;4167235;28;20324;-75
2022/12/28 08:04:21;;;;;;;21.23;14.75;;;;;;;7.49;59.11;95721.81;4167277;28;20129;-75
2022/12/28 08:06:24;;;;;;;25.98;15.57;;;;;;;7.64;58.70;95725.88;4172876;28;20485;-75
2022/12/28 08:08:25;;;;;;;26.05;16.77;;;;;;;7.74;58.51;95726.84;4147972;28;20502;-74
2022/12/28 08:10:27;;;;;;;23.13;15.63;;;;;;;7.86;58.11;95725.06;4174813;28;20067;-76
2022/12/28 08:12:29;;;;;;;20.83;13.98;;;;;;;8.00;57.63;95729.22;4175681;28;20061;-74
2022/12/28 08:14:31;;;;;;;18.88;12.88;;;;;;;8.09;58.00;95723.31;4166179;28;20622;-75
2022/12/28 08:16:36;;;;;;;23.30;15.20;;;;;;;8.21;57.43;95726.72;4174886;28;20071;-75
2022/12/28 08:18:39;;;;;;;20.55;13.85;;;;;;;8.23;56.74;95726.63;4174989;28;20052;-74
2022/12/28 08:20:40;;;;;;;49.65;26.27;;;;;;;8.28;57.93;95721.84;4175453;28;20053;-77
2022/12/28 08:22:42;;;;;;;22.50;14.10;;;;;;;8.32;57.48;95731.09;4175008;28;20076;-76
2022/12/28 08:24:44;;;;;;;17.35;12.25;;;;;;;8.35;56.52;95730.88;4174923;28;20057;-75
2022/12/28 08:26:47;;;;;;;19.63;12.30;;;;;;;8.28;56.28;95725.31;4174952;28;20056;-75
2022/12/28 08:28:51;;;;;;;15.40;10.40;;;;;;;8.22;55.65;95728.41;4175909;28;20083;-76
2022/12/28 08:30:53;;;;;;;15.60;8.07;;;;;;;8.16;56.09;95726.25;4174917;28;20479;-76
2022/12/28 08:32:55;;;;;;;15.25;9.20;;;;;;;8.07;56.19;95726.97;4173674;28;20057;-75
2022/12/28 08:34:57;;;;;;;12.77;8.85;;;;;;;8.17;56.19;95733.97;4175375;28;20098;-75
2022/12/28 08:36:59;;;;;;;12.20;7.80;;;;;;;7.88;56.83;95735.38;4175197;28;20048;-78
2022/12/28 08:39:01;;;;;;;12.30;7.85;;;;;;;7.68;56.91;95737.72;4172967;28;20057;-76
2022/12/28 08:41:05;;;;;;;12.00;7.60;;;;;;;7.76;57.06;95743.16;4154834;28;20065;-74
2022/12/28 08:43:07;;;;;;;11.27;7.72;;;;;;;7.75;57.25;95744.13;4174301;28;20045;-76
2022/12/28 08:45:09;;;;;;;13.00;7.93;;;;;;;7.75;56.62;95736.31;4174508;28;20060;-75
2022/12/28 08:47:11;;;;;;;12.52;7.72;;;;;;;7.79;57.31;95736.91;4174685;28;20080;-76
2022/12/28 08:49:12;;;;;;;12.35;8.43;;;;;;;7.62;57.20;95735.59;4168337;28;20053;-75
2022/12/28 08:51:36;;;;;;;12.05;7.00;;;;;;;7.24;58.43;95735.81;4159241;28;20282;-76
2022/12/28 08:53:38;;;;;;;11.20;6.22;;;;;;;7.08;59.09;95723.09;4172528;28;20046;-74
2022/12/28 08:55:40;;;;;;;11.50;6.90;;;;;;;7.01;58.91;95732.28;4175338;28;20080;-75
2022/12/28 08:57:41;;;;;;;13.57;6.60;;;;;;;7.08;59.03;95730.91;4167085;28;20357;-75
2022/12/28 08:59:43;;;;;;;8.75;5.57;;;;;;;6.65;59.50;95728.81;4173588;28;20110;-75
2022/12/28 09:01:46;;;;;;;11.20;7.07;;;;;;;6.70;59.70;95727.53;4165689;28;20057;-76
2022/12/28 09:03:49;;;;;;;11.95;6.90;;;;;;;6.60;60.21;95721.31;4174889;28;20057;-75
2022/12/28 09:05:51;;;;;;;16.63;8.48;;;;;;;6.85;59.86;95715.16;4166798;28;20493;-78
2022/12/28 09:07:55;;;;;;;13.38;7.00;;;;;;;7.12;59.52;95707.13;4174304;28;20071;-77
2022/12/28 09:10:00;;;;;;;9.93;7.05;;;;;;;7.33;58.74;95703.84;4172607;28;20068;-75
2022/12/28 09:12:02;;;;;;;13.88;7.60;;;;;;;7.29;59.29;95703.28;4150647;28;20057;-75
2022/12/28 09:14:06;;;;;;;8.98;6.53;;;;;;;7.15;59.03;95701.69;4162502;28;20480;-74
2022/12/28 09:16:10;;;;;;;12.38;7.53;;;;;;;7.00;59.58;95701.97;4165301;28;20461;-75
2022/12/28 09:18:12;;;;;;;13.93;9.07;;;;;;;6.96;60.37;95699.59;4161632;28;20535;-75
2022/12/28 09:20:14;;;;;;;16.63;10.80;;;;;;;6.69;60.86;95704.19;4165707;28;20071;-74
2022/12/28 09:22:16;;;;;;;18.13;10.63;;;;;;;6.68;60.98;95702.53;4170696;28;20400;-76
2022/12/28 09:24:17;;;;;;;17.10;9.85;;;;;;;6.84;60.94;95691.84;4174523;28;20064;-78
2022/12/28 09:26:24;;;;;;;13.90;8.45;;;;;;;7.09;60.22;95701.28;4174517;28;20069;-78
2022/12/28 09:28:26;;;;;;;15.05;9.57;;;;;;;7.15;59.46;95696.47;4171444;28;20130;-75
2022/12/28 12:03:58;;;;;;;13.32;8.52;;;;;;;7.86;58.62;95619.88;4152172;28;20049;-76
2022/12/28 12:06:00;;;;;;;14.52;8.65;;;;;;;7.99;58.42;95612.75;4150362;28;20134;-77
2022/12/28 12:08:11;;;;;;;15.48;8.73;;;;;;;8.03;57.97;95608.94;4159685;28;20397;-78
2022/12/28 12:10:28;;;;;;;16.00;9.43;;;;;;;8.09;57.70;95600.63;4160436;28;20053;-76
2022/12/28 12:12:29;;;;;;;15.75;9.07;;;;;;;8.18;57.60;95597.28;4161113;28;20412;-75
2022/12/28 12:14:36;;;;;;;16.30;9.05;;;;;;;8.28;57.42;95594.78;4160704;28;20053;-77
2022/12/28 12:17:05;;;;;;;18.40;9.20;;;;;;;8.44;57.67;95591.78;4137827;28;20465;-75
2022/12/28 12:19:07;;;;;;;15.60;9.30;;;;;;;8.44;57.44;95586.56;4154938;28;20073;-75
2022/12/28 12:21:40;;;;;;;17.17;9.15;;;;;;;8.36;57.35;95586.31;4161029;28;20574;-76
2022/12/28 12:23:48;;;;;;;18.35;9.02;;;;;;;8.32;57.98;95583.13;4148995;28;20103;-76
2022/12/28 12:25:53;;;;;;;23.33;9.93;;;;;;;8.19;58.37;95583.31;4142612;28;20097;-74
2022/12/28 12:28:14;;;;;;;15.60;9.95;;;;;;;8.21;59.34;95572.72;4142739;28;20141;-75
2022/12/28 12:30:18;;;;;;;14.95;9.88;;;;;;;8.35;58.90;95579.47;4161475;28;20054;-78
2022/12/28 12:32:24;;;;;;;;;;;;;;;8.45;58.61;95572.53;4160064;28;20049;-76
2022/12/28 12:34:40;;;;;;;16.05;9.25;;;;;;;8.55;58.64;95570.84;4142408;28;19925;-75
2022/12/28 12:37:19;;;;;;;15.23;9.95;;;;;;;8.68;58.55;95572.47;4142821;28;20081;-77
2022/12/28 12:39:46;;;;;;;14.32;9.45;;;;;;;8.72;57.93;95566.88;4160028;28;20524;-77
2022/12/28 12:42:06;;;;;;;17.83;10.35;;;;;;;8.75;57.85;95563.97;4160742;28;20489;-76
2022/12/28 12:44:33;;;;;;;16.38;10.40;;;;;;;8.50;57.37;95574.81;4160765;28;20053;-77
2022/12/28 12:46:41;;;;;;;17.85;9.95;;;;;;;8.27;57.73;95574.84;4159730;28;20075;-76